ACA105 CYYZ-CYVR
Flight info
| Callsign | ACA105 |
|---|---|
| Flight time | 4h 17m |
| Altitude | 34000 |
| Route | AVSEP7 MUSIT DCT SSM DCT YQT DCT GABOV DCT SEGAP/N0488F360 DCT WALSH DCT DESNU Q888 BOOTH CANUC6 |
| Aircraft | B77W/H-SDE1E2E3FGHIJ2J3J4J5M1RWXY/LB1D1 |
Departure
| Time | 2026-05-05 10:39 |
|---|---|
| Airport | Toronto Pearson International Airport (CYYZ) |
Arrival
| Time | 2026-05-05 14:57 |
|---|---|
| Airport | Vancouver International Airport (CYVR) |
| Time | Latitude | Longitude | Altitude | Speed | Heading |
|---|---|---|---|---|---|
| 2026-05-05 10:24 | 43.67697 | -79.60678 | 567 ft | 2 kts | 227° |
| 2026-05-05 10:24 | 43.67707 | -79.60664 | 567 ft | 0 kts | 228° |
| 2026-05-05 10:24 | 43.67713 | -79.60654 | 567 ft | 1 kts | 226° |
| 2026-05-05 10:25 | 43.67714 | -79.60652 | 567 ft | 0 kts | 226° |
| 2026-05-05 10:27 | 43.67709 | -79.60660 | 567 ft | 3 kts | 226° |
| 2026-05-05 10:27 | 43.67679 | -79.60706 | 567 ft | 8 kts | 230° |
| 2026-05-05 10:27 | 43.67635 | -79.60779 | 568 ft | 10 kts | 229° |
| 2026-05-05 10:28 | 43.67578 | -79.60866 | 568 ft | 13 kts | 227° |
| 2026-05-05 10:28 | 43.67512 | -79.60983 | 566 ft | 16 kts | 242° |
| 2026-05-05 10:28 | 43.67479 | -79.61127 | 568 ft | 15 kts | 263° |
| 2026-05-05 10:28 | 43.67491 | -79.61282 | 569 ft | 17 kts | 288° |
| 2026-05-05 10:29 | 43.67550 | -79.61435 | 570 ft | 19 kts | 310° |
| 2026-05-05 10:29 | 43.67629 | -79.61544 | 572 ft | 9 kts | 315° |
| 2026-05-05 10:29 | 43.67662 | -79.61606 | 573 ft | 6 kts | 275° |
| 2026-05-05 10:29 | 43.67638 | -79.61661 | 572 ft | 8 kts | 229° |
| 2026-05-05 10:30 | 43.67643 | -79.61741 | 572 ft | 10 kts | 309° |
| 2026-05-05 10:30 | 43.67709 | -79.61826 | 573 ft | 14 kts | 317° |
| 2026-05-05 10:30 | 43.67794 | -79.61935 | 575 ft | 18 kts | 316° |
| 2026-05-05 10:30 | 43.67897 | -79.62054 | 577 ft | 18 kts | 334° |
| 2026-05-05 10:31 | 43.67999 | -79.62138 | 579 ft | 17 kts | 319° |
| 2026-05-05 10:31 | 43.68097 | -79.62268 | 579 ft | 21 kts | 315° |
| 2026-05-05 10:31 | 43.68218 | -79.62419 | 577 ft | 25 kts | 318° |
| 2026-05-05 10:31 | 43.68341 | -79.62574 | 574 ft | 22 kts | 317° |
| 2026-05-05 10:32 | 43.68457 | -79.62725 | 569 ft | 23 kts | 315° |
| 2026-05-05 10:32 | 43.68572 | -79.62875 | 565 ft | 22 kts | 316° |
| 2026-05-05 10:32 | 43.68688 | -79.63027 | 563 ft | 24 kts | 316° |
| 2026-05-05 10:32 | 43.68811 | -79.63190 | 562 ft | 23 kts | 316° |
| 2026-05-05 10:33 | 43.68929 | -79.63342 | 559 ft | 22 kts | 316° |
| 2026-05-05 10:33 | 43.69024 | -79.63465 | 557 ft | 15 kts | 316° |
| 2026-05-05 10:33 | 43.69086 | -79.63531 | 554 ft | 9 kts | 355° |
| 2026-05-05 10:33 | 43.69146 | -79.63487 | 554 ft | 10 kts | 44° |
| 2026-05-05 10:34 | 43.69205 | -79.63435 | 556 ft | 10 kts | 15° |
| 2026-05-05 10:34 | 43.69280 | -79.63423 | 556 ft | 8 kts | 2° |
| 2026-05-05 10:34 | 43.69289 | -79.63422 | 555 ft | 0 kts | 2° |
| 2026-05-05 10:36 | 43.69294 | -79.63422 | 555 ft | 3 kts | 2° |
| 2026-05-05 10:36 | 43.69351 | -79.63433 | 554 ft | 11 kts | 335° |
| 2026-05-05 10:36 | 43.69402 | -79.63496 | 553 ft | 8 kts | 279° |
| 2026-05-05 10:36 | 43.69384 | -79.63551 | 553 ft | 0 kts | 226° |
| 2026-05-05 10:38 | 43.69352 | -79.63598 | 552 ft | 18 kts | 226° |
| 2026-05-05 10:38 | 43.69117 | -79.63934 | 550 ft | 82 kts | 226° |
| 2026-05-05 10:39 | 43.68565 | -79.64735 | 550 ft | 143 kts | 226° |
| 2026-05-05 10:39 | 43.67790 | -79.65859 | 777 ft | 173 kts | 225° |
| 2026-05-05 10:39 | 43.66944 | -79.67082 | 1423 ft | 180 kts | 230° |
| 2026-05-05 10:39 | 43.66202 | -79.68456 | 2110 ft | 183 kts | 237° |
| 2026-05-05 10:40 | 43.65437 | -79.69992 | 2426 ft | 204 kts | 237° |
| 2026-05-05 10:40 | 43.64602 | -79.71649 | 2830 ft | 222 kts | 237° |
| 2026-05-05 10:40 | 43.63680 | -79.73470 | 3399 ft | 234 kts | 237° |
| 2026-05-05 10:40 | 43.62757 | -79.75288 | 4223 ft | 235 kts | 237° |
| 2026-05-05 10:41 | 43.61885 | -79.77201 | 5064 ft | 234 kts | 249° |
| 2026-05-05 10:41 | 43.61700 | -79.79409 | 5797 ft | 240 kts | 276° |
| 2026-05-05 10:41 | 43.62313 | -79.81535 | 6654 ft | 248 kts | 296° |
| 2026-05-05 10:41 | 43.63391 | -79.83474 | 7254 ft | 260 kts | 301° |
| 2026-05-05 10:42 | 43.65707 | -79.87326 | 8724 ft | 265 kts | 301° |
| 2026-05-05 10:42 | 43.66891 | -79.89292 | 9462 ft | 266 kts | 301° |
| 2026-05-05 10:42 | 43.68066 | -79.91242 | 10164 ft | 268 kts | 301° |
| 2026-05-05 10:43 | 43.69335 | -79.93228 | 10559 ft | 287 kts | 308° |
| 2026-05-05 10:43 | 43.70982 | -79.95029 | 10930 ft | 313 kts | 320° |
| 2026-05-05 10:43 | 43.72953 | -79.96485 | 11309 ft | 334 kts | 325° |
| 2026-05-05 10:43 | 43.75104 | -79.97949 | 11703 ft | 349 kts | 326° |
| 2026-05-05 10:44 | 43.77319 | -79.99493 | 12117 ft | 363 kts | 325° |
| 2026-05-05 10:44 | 43.79586 | -80.01096 | 12594 ft | 376 kts | 325° |
| 2026-05-05 10:44 | 43.81954 | -80.02779 | 13203 ft | 385 kts | 325° |
| 2026-05-05 10:44 | 43.84341 | -80.04478 | 14007 ft | 389 kts | 326° |
| 2026-05-05 10:45 | 43.86716 | -80.06170 | 14930 ft | 389 kts | 326° |
| 2026-05-05 10:45 | 43.89154 | -80.07912 | 15678 ft | 395 kts | 325° |
| 2026-05-05 10:45 | 43.91553 | -80.09747 | 16340 ft | 397 kts | 320° |
| 2026-05-05 10:45 | 43.93745 | -80.12112 | 16942 ft | 397 kts | 310° |
| 2026-05-05 10:46 | 43.95570 | -80.14916 | 17597 ft | 396 kts | 302° |
| 2026-05-05 10:46 | 43.97243 | -80.17972 | 18413 ft | 397 kts | 301° |
| 2026-05-05 10:46 | 43.98896 | -80.21024 | 19256 ft | 398 kts | 301° |
| 2026-05-05 10:46 | 44.00560 | -80.24100 | 20055 ft | 399 kts | 301° |
| 2026-05-05 10:47 | 44.02204 | -80.27145 | 20732 ft | 402 kts | 301° |
| 2026-05-05 10:47 | 44.03892 | -80.30273 | 21351 ft | 407 kts | 301° |
| 2026-05-05 10:47 | 44.05596 | -80.33434 | 21969 ft | 412 kts | 301° |
| 2026-05-05 10:47 | 44.07303 | -80.36602 | 22695 ft | 413 kts | 301° |
| 2026-05-05 10:48 | 44.09036 | -80.39821 | 23390 ft | 414 kts | 300° |
| 2026-05-05 10:48 | 44.10745 | -80.43002 | 23952 ft | 418 kts | 300° |
| 2026-05-05 10:48 | 44.12497 | -80.46265 | 24515 ft | 421 kts | 300° |
| 2026-05-05 10:48 | 44.14323 | -80.49483 | 25062 ft | 429 kts | 305° |
| 2026-05-05 10:49 | 44.16362 | -80.52553 | 25626 ft | 433 kts | 306° |
| 2026-05-05 10:49 | 44.18430 | -80.55617 | 26109 ft | 437 kts | 306° |
| 2026-05-05 10:49 | 44.20540 | -80.58750 | 26598 ft | 441 kts | 306° |
| 2026-05-05 10:49 | 44.22638 | -80.61867 | 27158 ft | 444 kts | 306° |
| 2026-05-05 10:50 | 44.24755 | -80.65020 | 27696 ft | 447 kts | 305° |
| 2026-05-05 10:50 | 44.26892 | -80.68208 | 28234 ft | 450 kts | 305° |
| 2026-05-05 10:50 | 44.29018 | -80.71384 | 28769 ft | 452 kts | 305° |
| 2026-05-05 10:50 | 44.31152 | -80.74575 | 29403 ft | 453 kts | 305° |
| 2026-05-05 10:51 | 44.33295 | -80.77782 | 30167 ft | 450 kts | 305° |
| 2026-05-05 10:51 | 44.35421 | -80.80965 | 30946 ft | 447 kts | 305° |
| 2026-05-05 10:51 | 44.37534 | -80.84134 | 31822 ft | 441 kts | 304° |
| 2026-05-05 10:51 | 44.39598 | -80.87234 | 32482 ft | 438 kts | 304° |
| 2026-05-05 10:52 | 44.41682 | -80.90374 | 33004 ft | 438 kts | 304° |
| 2026-05-05 10:52 | 44.43741 | -80.93477 | 33517 ft | 438 kts | 304° |
| 2026-05-05 10:52 | 44.45807 | -80.96596 | 33627 ft | 440 kts | 304° |
| 2026-05-05 10:53 | 44.49955 | -81.02861 | 33632 ft | 435 kts | 304° |
| 2026-05-05 10:53 | 44.54046 | -81.09058 | 33628 ft | 436 kts | 303° |
| 2026-05-05 10:54 | 44.58170 | -81.15318 | 33628 ft | 435 kts | 303° |
| 2026-05-05 10:54 | 44.62278 | -81.21568 | 33635 ft | 435 kts | 303° |
| 2026-05-05 10:55 | 44.66393 | -81.27844 | 33640 ft | 437 kts | 303° |
| 2026-05-05 10:55 | 44.70501 | -81.34117 | 33634 ft | 434 kts | 303° |
| 2026-05-05 10:56 | 44.74581 | -81.40365 | 33636 ft | 432 kts | 303° |
| 2026-05-05 10:56 | 44.78661 | -81.46632 | 33633 ft | 435 kts | 303° |
| 2026-05-05 10:57 | 44.82737 | -81.52902 | 33629 ft | 433 kts | 303° |
| 2026-05-05 10:57 | 44.86812 | -81.59184 | 33633 ft | 433 kts | 303° |
| 2026-05-05 10:58 | 44.90898 | -81.65501 | 33636 ft | 435 kts | 302° |
| 2026-05-05 10:58 | 44.94935 | -81.71750 | 33657 ft | 430 kts | 302° |
| 2026-05-05 10:59 | 44.98984 | -81.78040 | 33662 ft | 433 kts | 303° |
| 2026-05-05 10:59 | 45.03052 | -81.84364 | 33653 ft | 429 kts | 302° |
| 2026-05-05 11:00 | 45.07062 | -81.90614 | 33653 ft | 428 kts | 302° |
| 2026-05-05 11:00 | 45.11074 | -81.96884 | 33637 ft | 427 kts | 302° |
| 2026-05-05 11:01 | 45.15048 | -82.03108 | 33633 ft | 429 kts | 302° |
| 2026-05-05 11:01 | 45.19063 | -82.09409 | 33632 ft | 429 kts | 302° |
| 2026-05-05 11:02 | 45.23086 | -82.15740 | 33633 ft | 432 kts | 302° |
| 2026-05-05 11:02 | 45.27081 | -82.22033 | 33627 ft | 427 kts | 302° |
| 2026-05-05 11:03 | 45.31084 | -82.28361 | 33626 ft | 429 kts | 302° |
| 2026-05-05 11:03 | 45.35041 | -82.34627 | 33633 ft | 427 kts | 302° |
| 2026-05-05 11:04 | 45.39003 | -82.40917 | 33630 ft | 427 kts | 302° |
| 2026-05-05 11:04 | 45.42805 | -82.47481 | 33624 ft | 427 kts | 298° |
| 2026-05-05 11:05 | 45.46423 | -82.54105 | 33632 ft | 421 kts | 298° |
| 2026-05-05 11:05 | 45.50033 | -82.60702 | 33634 ft | 422 kts | 298° |
| 2026-05-05 11:06 | 45.53646 | -82.67297 | 33655 ft | 422 kts | 298° |
| 2026-05-05 11:06 | 45.57280 | -82.73933 | 33648 ft | 421 kts | 298° |
| 2026-05-05 11:07 | 45.60859 | -82.80479 | 33653 ft | 422 kts | 298° |
| 2026-05-05 11:07 | 45.64472 | -82.87100 | 33647 ft | 420 kts | 298° |
| 2026-05-05 11:08 | 45.68044 | -82.93661 | 33647 ft | 422 kts | 297° |
| 2026-05-05 11:08 | 45.71652 | -83.00299 | 33641 ft | 419 kts | 297° |
| 2026-05-05 11:09 | 45.75214 | -83.06870 | 33646 ft | 418 kts | 298° |
| 2026-05-05 11:09 | 45.78784 | -83.13471 | 33643 ft | 417 kts | 297° |
| 2026-05-05 11:10 | 45.82321 | -83.20029 | 33647 ft | 418 kts | 297° |
| 2026-05-05 11:10 | 45.85895 | -83.26667 | 33654 ft | 417 kts | 297° |
| 2026-05-05 11:11 | 45.89437 | -83.33266 | 33648 ft | 419 kts | 297° |
| 2026-05-05 11:11 | 45.92980 | -83.39877 | 33653 ft | 419 kts | 298° |
| 2026-05-05 11:12 | 45.96492 | -83.46445 | 33638 ft | 415 kts | 297° |
| 2026-05-05 11:12 | 46.00030 | -83.53088 | 33637 ft | 421 kts | 297° |
| 2026-05-05 11:13 | 46.03548 | -83.59694 | 33625 ft | 418 kts | 297° |
| 2026-05-05 11:13 | 46.07097 | -83.66385 | 33664 ft | 420 kts | 297° |
| 2026-05-05 11:14 | 46.10636 | -83.73067 | 33636 ft | 419 kts | 297° |
| 2026-05-05 11:14 | 46.14184 | -83.79789 | 33671 ft | 425 kts | 298° |
| 2026-05-05 11:15 | 46.17724 | -83.86503 | 33609 ft | 421 kts | 298° |
| 2026-05-05 11:15 | 46.21278 | -83.93267 | 33668 ft | 427 kts | 298° |
| 2026-05-05 11:16 | 46.24837 | -84.00049 | 33588 ft | 422 kts | 298° |
| 2026-05-05 11:16 | 46.28412 | -84.06890 | 33594 ft | 429 kts | 298° |
| 2026-05-05 11:17 | 46.31981 | -84.13725 | 33651 ft | 429 kts | 298° |
| 2026-05-05 11:17 | 46.35563 | -84.20605 | 33637 ft | 429 kts | 298° |
| 2026-05-05 11:18 | 46.39156 | -84.27528 | 33635 ft | 433 kts | 299° |
| 2026-05-05 11:18 | 46.42462 | -84.34714 | 33643 ft | 429 kts | 292° |
| 2026-05-05 11:19 | 46.45418 | -84.42181 | 33661 ft | 427 kts | 293° |
| 2026-05-05 11:19 | 46.48370 | -84.49680 | 33677 ft | 429 kts | 293° |
| 2026-05-05 11:20 | 46.51295 | -84.57135 | 33613 ft | 425 kts | 293° |
| 2026-05-05 11:20 | 46.54224 | -84.64629 | 33608 ft | 429 kts | 293° |
| 2026-05-05 11:21 | 46.57181 | -84.72217 | 33632 ft | 432 kts | 293° |
| 2026-05-05 11:21 | 46.60116 | -84.79764 | 33651 ft | 431 kts | 293° |
| 2026-05-05 11:22 | 46.63063 | -84.87367 | 33616 ft | 432 kts | 294° |
| 2026-05-05 11:22 | 46.66011 | -84.94993 | 33644 ft | 434 kts | 293° |
| 2026-05-05 11:23 | 46.68952 | -85.02623 | 33679 ft | 437 kts | 294° |
| 2026-05-05 11:23 | 46.71905 | -85.10306 | 33644 ft | 435 kts | 294° |
| 2026-05-05 11:24 | 46.74871 | -85.18044 | 33654 ft | 438 kts | 294° |
| 2026-05-05 11:24 | 46.77810 | -85.25732 | 33660 ft | 435 kts | 294° |
| 2026-05-05 11:25 | 46.80757 | -85.33466 | 33659 ft | 438 kts | 294° |
| 2026-05-05 11:25 | 46.83681 | -85.41161 | 33653 ft | 439 kts | 294° |
| 2026-05-05 11:26 | 46.86648 | -85.48992 | 33682 ft | 439 kts | 294° |
| 2026-05-05 11:26 | 46.89594 | -85.56789 | 33681 ft | 438 kts | 295° |
| 2026-05-05 11:27 | 46.92533 | -85.64593 | 33653 ft | 440 kts | 295° |
| 2026-05-05 11:27 | 46.95475 | -85.72423 | 33671 ft | 439 kts | 294° |
| 2026-05-05 11:28 | 46.98397 | -85.80224 | 33678 ft | 439 kts | 294° |
| 2026-05-05 11:28 | 47.01336 | -85.88094 | 33661 ft | 438 kts | 294° |
| 2026-05-05 11:29 | 47.04234 | -85.95879 | 33665 ft | 441 kts | 294° |
| 2026-05-05 11:29 | 47.07167 | -86.03777 | 33672 ft | 439 kts | 294° |
| 2026-05-05 11:30 | 47.10078 | -86.11641 | 33670 ft | 441 kts | 294° |
| 2026-05-05 11:30 | 47.12986 | -86.19521 | 33663 ft | 439 kts | 294° |
| 2026-05-05 11:31 | 47.15876 | -86.27374 | 33659 ft | 440 kts | 294° |
| 2026-05-05 11:31 | 47.18770 | -86.35262 | 33662 ft | 440 kts | 294° |
| 2026-05-05 11:32 | 47.21666 | -86.43177 | 33658 ft | 441 kts | 294° |
| 2026-05-05 11:32 | 47.24570 | -86.51140 | 33660 ft | 441 kts | 294° |
| 2026-05-05 11:33 | 47.27455 | -86.59074 | 33656 ft | 441 kts | 295° |
| 2026-05-05 11:33 | 47.30344 | -86.67040 | 33670 ft | 441 kts | 294° |
| 2026-05-05 11:34 | 47.33225 | -86.75011 | 33669 ft | 441 kts | 294° |
| 2026-05-05 11:34 | 47.36104 | -86.83003 | 33663 ft | 443 kts | 294° |
| 2026-05-05 11:35 | 47.38988 | -86.91029 | 33672 ft | 441 kts | 294° |
| 2026-05-05 11:35 | 47.41836 | -86.98978 | 33676 ft | 441 kts | 294° |
| 2026-05-05 11:36 | 47.44701 | -87.07001 | 33675 ft | 442 kts | 294° |
| 2026-05-05 11:36 | 47.47562 | -87.15037 | 33670 ft | 441 kts | 294° |
| 2026-05-05 11:37 | 47.50413 | -87.23071 | 33666 ft | 443 kts | 294° |
| 2026-05-05 11:37 | 47.53267 | -87.31133 | 33682 ft | 442 kts | 294° |
| 2026-05-05 11:38 | 47.56115 | -87.39207 | 33666 ft | 444 kts | 294° |
| 2026-05-05 11:38 | 47.58965 | -87.47311 | 33667 ft | 443 kts | 294° |
| 2026-05-05 11:39 | 47.61818 | -87.55448 | 33663 ft | 445 kts | 294° |
| 2026-05-05 11:39 | 47.64662 | -87.63585 | 33667 ft | 445 kts | 294° |
| 2026-05-05 11:40 | 47.67491 | -87.71706 | 33672 ft | 445 kts | 294° |
| 2026-05-05 11:40 | 47.70324 | -87.79859 | 33672 ft | 447 kts | 294° |
| 2026-05-05 11:40 | 47.71763 | -87.84016 | 33864 ft | 452 kts | 294° |
| 2026-05-05 11:41 | 47.73207 | -87.88187 | 34386 ft | 449 kts | 294° |
| 2026-05-05 11:41 | 47.74632 | -87.92310 | 34939 ft | 445 kts | 294° |
| 2026-05-05 11:41 | 47.76029 | -87.96362 | 35354 ft | 443 kts | 294° |
| 2026-05-05 11:41 | 47.77440 | -88.00459 | 35614 ft | 446 kts | 294° |
| 2026-05-05 11:42 | 47.78840 | -88.04535 | 35666 ft | 450 kts | 295° |
| 2026-05-05 11:42 | 47.81686 | -88.12830 | 35685 ft | 448 kts | 295° |
| 2026-05-05 11:43 | 47.84509 | -88.21086 | 35674 ft | 448 kts | 295° |
| 2026-05-05 11:43 | 47.87318 | -88.29328 | 35679 ft | 447 kts | 295° |
| 2026-05-05 11:44 | 47.90134 | -88.37618 | 35677 ft | 448 kts | 295° |
| 2026-05-05 11:44 | 47.92947 | -88.45926 | 35681 ft | 448 kts | 295° |
| 2026-05-05 11:45 | 47.95741 | -88.54204 | 35679 ft | 448 kts | 295° |
| 2026-05-05 11:45 | 47.98545 | -88.62536 | 35682 ft | 448 kts | 295° |
| 2026-05-05 11:46 | 48.01329 | -88.70838 | 35681 ft | 449 kts | 294° |
| 2026-05-05 11:46 | 48.04114 | -88.79170 | 35681 ft | 448 kts | 294° |
| 2026-05-05 11:47 | 48.06903 | -88.87542 | 35684 ft | 450 kts | 294° |
| 2026-05-05 11:47 | 48.09679 | -88.95900 | 35686 ft | 450 kts | 294° |
| 2026-05-05 11:48 | 48.13845 | -89.08494 | 35688 ft | 449 kts | 294° |
| 2026-05-05 11:48 | 48.16610 | -89.16887 | 35689 ft | 450 kts | 294° |
| 2026-05-05 11:49 | 48.19366 | -89.25281 | 35693 ft | 450 kts | 294° |
| 2026-05-05 11:49 | 48.22109 | -89.33664 | 35698 ft | 450 kts | 295° |
| 2026-05-05 11:50 | 48.24860 | -89.42102 | 35693 ft | 452 kts | 294° |
| 2026-05-05 11:50 | 48.27403 | -89.50652 | 35691 ft | 449 kts | 292° |
| 2026-05-05 11:51 | 48.29912 | -89.59270 | 35682 ft | 451 kts | 292° |
| 2026-05-05 11:51 | 48.32401 | -89.67852 | 35676 ft | 450 kts | 292° |
| 2026-05-05 11:52 | 48.34900 | -89.76502 | 35669 ft | 450 kts | 292° |
| 2026-05-05 11:52 | 48.37380 | -89.85120 | 35662 ft | 451 kts | 292° |
| 2026-05-05 11:53 | 48.39863 | -89.93780 | 35664 ft | 451 kts | 292° |
| 2026-05-05 11:53 | 48.42336 | -90.02434 | 35661 ft | 451 kts | 292° |
| 2026-05-05 11:54 | 48.44820 | -90.11163 | 35659 ft | 453 kts | 292° |
| 2026-05-05 11:54 | 48.47289 | -90.19868 | 35669 ft | 452 kts | 292° |
| 2026-05-05 11:55 | 48.49758 | -90.28606 | 35660 ft | 453 kts | 292° |
| 2026-05-05 11:55 | 48.52224 | -90.37365 | 35660 ft | 453 kts | 292° |
| 2026-05-05 11:56 | 48.54673 | -90.46094 | 35661 ft | 452 kts | 292° |
| 2026-05-05 11:56 | 48.57118 | -90.54845 | 35666 ft | 453 kts | 292° |
| 2026-05-05 11:57 | 48.59574 | -90.63664 | 35675 ft | 453 kts | 292° |
| 2026-05-05 11:57 | 48.61990 | -90.72371 | 35693 ft | 453 kts | 292° |
| 2026-05-05 11:58 | 48.64432 | -90.81207 | 35698 ft | 455 kts | 292° |
| 2026-05-05 11:58 | 48.66875 | -90.90082 | 35702 ft | 455 kts | 292° |
| 2026-05-05 11:59 | 48.69290 | -90.98882 | 35707 ft | 455 kts | 292° |
| 2026-05-05 11:59 | 48.71710 | -91.07737 | 35715 ft | 453 kts | 292° |
| 2026-05-05 12:00 | 48.74116 | -91.16572 | 35719 ft | 453 kts | 292° |
| 2026-05-05 12:00 | 48.76501 | -91.25365 | 35720 ft | 453 kts | 292° |
| 2026-05-05 12:01 | 48.78899 | -91.34242 | 35714 ft | 454 kts | 292° |
| 2026-05-05 12:01 | 48.81279 | -91.43082 | 35717 ft | 454 kts | 292° |
| 2026-05-05 12:02 | 48.83662 | -91.51967 | 35717 ft | 454 kts | 292° |
| 2026-05-05 12:02 | 48.86053 | -91.60914 | 35720 ft | 455 kts | 292° |
| 2026-05-05 12:03 | 48.88425 | -91.69829 | 35735 ft | 454 kts | 291° |
| 2026-05-05 12:03 | 48.90781 | -91.78715 | 35736 ft | 455 kts | 291° |
| 2026-05-05 12:04 | 48.93144 | -91.87662 | 35734 ft | 455 kts | 291° |
| 2026-05-05 12:04 | 48.95493 | -91.96592 | 35744 ft | 456 kts | 291° |
| 2026-05-05 12:05 | 48.97848 | -92.05579 | 35743 ft | 456 kts | 291° |
| 2026-05-05 12:05 | 49.00185 | -92.14530 | 35740 ft | 456 kts | 291° |
| 2026-05-05 12:06 | 49.02521 | -92.23515 | 35740 ft | 457 kts | 291° |
| 2026-05-05 12:06 | 49.04843 | -92.32482 | 35746 ft | 457 kts | 291° |
| 2026-05-05 12:07 | 49.07170 | -92.41502 | 35750 ft | 457 kts | 291° |
| 2026-05-05 12:07 | 49.09484 | -92.50507 | 35752 ft | 457 kts | 291° |
| 2026-05-05 12:08 | 49.11816 | -92.59618 | 35759 ft | 458 kts | 291° |
| 2026-05-05 12:08 | 49.14114 | -92.68630 | 35768 ft | 457 kts | 291° |
| 2026-05-05 12:09 | 49.16425 | -92.77734 | 35764 ft | 457 kts | 291° |
| 2026-05-05 12:09 | 49.18717 | -92.86799 | 35767 ft | 458 kts | 291° |
| 2026-05-05 12:10 | 49.21018 | -92.95935 | 35762 ft | 458 kts | 291° |
| 2026-05-05 12:10 | 49.23294 | -93.05010 | 35764 ft | 459 kts | 291° |
| 2026-05-05 12:11 | 49.25579 | -93.14154 | 35764 ft | 459 kts | 291° |
| 2026-05-05 12:11 | 49.27844 | -93.23259 | 35757 ft | 459 kts | 291° |
| 2026-05-05 12:12 | 49.30123 | -93.32458 | 35763 ft | 460 kts | 291° |
| 2026-05-05 12:12 | 49.32384 | -93.41618 | 35766 ft | 460 kts | 291° |
| 2026-05-05 12:13 | 49.34641 | -93.50803 | 35767 ft | 460 kts | 291° |
| 2026-05-05 12:13 | 49.36889 | -93.59989 | 35771 ft | 460 kts | 291° |
| 2026-05-05 12:14 | 49.39149 | -93.69262 | 35777 ft | 460 kts | 290° |
| 2026-05-05 12:14 | 49.41379 | -93.78452 | 35782 ft | 460 kts | 290° |
| 2026-05-05 12:15 | 49.43613 | -93.87693 | 35790 ft | 460 kts | 290° |
| 2026-05-05 12:15 | 49.45832 | -93.96916 | 35796 ft | 461 kts | 290° |
| 2026-05-05 12:16 | 49.47709 | -94.06268 | 35793 ft | 463 kts | 281° |
| 2026-05-05 12:16 | 49.48758 | -94.16065 | 35802 ft | 462 kts | 280° |
| 2026-05-05 12:17 | 49.49749 | -94.25854 | 35809 ft | 462 kts | 280° |
| 2026-05-05 12:17 | 49.50713 | -94.35597 | 35816 ft | 462 kts | 280° |
| 2026-05-05 12:18 | 49.51660 | -94.45342 | 35814 ft | 462 kts | 280° |
| 2026-05-05 12:18 | 49.52602 | -94.55148 | 35815 ft | 463 kts | 280° |
| 2026-05-05 12:19 | 49.53533 | -94.64967 | 35824 ft | 463 kts | 279° |
| 2026-05-05 12:19 | 49.54459 | -94.74831 | 35831 ft | 463 kts | 279° |
| 2026-05-05 12:20 | 49.55366 | -94.84586 | 35830 ft | 463 kts | 279° |
| 2026-05-05 12:20 | 49.56266 | -94.94373 | 35831 ft | 463 kts | 279° |
| 2026-05-05 12:21 | 49.57160 | -95.04180 | 35821 ft | 463 kts | 279° |
| 2026-05-05 12:21 | 49.58047 | -95.14008 | 35826 ft | 463 kts | 279° |
| 2026-05-05 12:22 | 49.58924 | -95.23817 | 35836 ft | 463 kts | 279° |
| 2026-05-05 12:22 | 49.59792 | -95.33624 | 35839 ft | 464 kts | 279° |
| 2026-05-05 12:23 | 49.60660 | -95.43535 | 35842 ft | 463 kts | 279° |
| 2026-05-05 12:23 | 49.61514 | -95.53380 | 35841 ft | 464 kts | 279° |
| 2026-05-05 12:24 | 49.62358 | -95.63206 | 35855 ft | 463 kts | 279° |
| 2026-05-05 12:24 | 49.63196 | -95.73068 | 35869 ft | 464 kts | 278° |
| 2026-05-05 12:25 | 49.64025 | -95.82924 | 35868 ft | 464 kts | 278° |
| 2026-05-05 12:25 | 49.64846 | -95.92791 | 35869 ft | 464 kts | 278° |
| 2026-05-05 12:26 | 49.65661 | -96.02692 | 35872 ft | 465 kts | 279° |
| 2026-05-05 12:26 | 49.66468 | -96.12595 | 35876 ft | 465 kts | 279° |
| 2026-05-05 12:27 | 49.67264 | -96.22472 | 35880 ft | 465 kts | 278° |
| 2026-05-05 12:27 | 49.68048 | -96.32317 | 35881 ft | 463 kts | 278° |
| 2026-05-05 12:28 | 49.68827 | -96.42191 | 35886 ft | 464 kts | 278° |
| 2026-05-05 12:28 | 49.69597 | -96.52074 | 35888 ft | 464 kts | 279° |
| 2026-05-05 12:29 | 49.70365 | -96.62031 | 35891 ft | 464 kts | 279° |
| 2026-05-05 12:29 | 49.71121 | -96.71958 | 35899 ft | 465 kts | 278° |
| 2026-05-05 12:30 | 49.71865 | -96.81838 | 35910 ft | 465 kts | 278° |
| 2026-05-05 12:30 | 49.72606 | -96.91782 | 35907 ft | 465 kts | 278° |
| 2026-05-05 12:31 | 49.73333 | -97.01662 | 35907 ft | 464 kts | 278° |
| 2026-05-05 12:31 | 49.74057 | -97.11636 | 35911 ft | 465 kts | 278° |
| 2026-05-05 12:32 | 49.74768 | -97.21529 | 35912 ft | 465 kts | 278° |
| 2026-05-05 12:32 | 49.75470 | -97.31414 | 35913 ft | 465 kts | 278° |
| 2026-05-05 12:33 | 49.76166 | -97.41352 | 35916 ft | 466 kts | 278° |
| 2026-05-05 12:33 | 49.76854 | -97.51305 | 35914 ft | 465 kts | 278° |
| 2026-05-05 12:34 | 49.77537 | -97.61304 | 35917 ft | 465 kts | 278° |
| 2026-05-05 12:34 | 49.78206 | -97.71217 | 35924 ft | 466 kts | 277° |
| 2026-05-05 12:35 | 49.78867 | -97.81152 | 35934 ft | 465 kts | 277° |
| 2026-05-05 12:35 | 49.79521 | -97.91094 | 35934 ft | 465 kts | 277° |
| 2026-05-05 12:36 | 49.80167 | -98.01062 | 35943 ft | 466 kts | 277° |
| 2026-05-05 12:36 | 49.80805 | -98.11041 | 35941 ft | 466 kts | 277° |
| 2026-05-05 12:37 | 49.81434 | -98.21011 | 35943 ft | 467 kts | 277° |
| 2026-05-05 12:37 | 49.82056 | -98.31020 | 35942 ft | 466 kts | 277° |
| 2026-05-05 12:38 | 49.82666 | -98.40964 | 35945 ft | 467 kts | 277° |
| 2026-05-05 12:38 | 49.83275 | -98.51032 | 35946 ft | 467 kts | 277° |
| 2026-05-05 12:39 | 49.83872 | -98.61051 | 35944 ft | 467 kts | 278° |
| 2026-05-05 12:39 | 49.84459 | -98.71059 | 35949 ft | 468 kts | 277° |
| 2026-05-05 12:40 | 49.85040 | -98.81104 | 35953 ft | 468 kts | 277° |
| 2026-05-05 12:40 | 49.85609 | -98.91099 | 35946 ft | 467 kts | 277° |
| 2026-05-05 12:41 | 49.86168 | -99.01074 | 35946 ft | 468 kts | 277° |
| 2026-05-05 12:41 | 49.86725 | -99.11159 | 35947 ft | 467 kts | 277° |
| 2026-05-05 12:42 | 49.87267 | -99.21145 | 35945 ft | 467 kts | 277° |
| 2026-05-05 12:42 | 49.87805 | -99.31209 | 35942 ft | 468 kts | 277° |
| 2026-05-05 12:43 | 49.88331 | -99.41215 | 35942 ft | 468 kts | 277° |
| 2026-05-05 12:43 | 49.88851 | -99.51276 | 35943 ft | 468 kts | 277° |
| 2026-05-05 12:44 | 49.89359 | -99.61262 | 35944 ft | 468 kts | 277° |
| 2026-05-05 12:44 | 49.89862 | -99.71343 | 35946 ft | 469 kts | 276° |
| 2026-05-05 12:45 | 49.90358 | -99.81446 | 35951 ft | 468 kts | 276° |
| 2026-05-05 12:45 | 49.90840 | -99.91452 | 35951 ft | 468 kts | 276° |
| 2026-05-05 12:46 | 49.91374 | -100.01548 | 35950 ft | 467 kts | 277° |
| 2026-05-05 12:46 | 49.91955 | -100.11526 | 35948 ft | 467 kts | 277° |
| 2026-05-05 12:47 | 49.92527 | -100.21564 | 35942 ft | 467 kts | 277° |
| 2026-05-05 12:47 | 49.93090 | -100.31654 | 35939 ft | 468 kts | 277° |
| 2026-05-05 12:48 | 49.93641 | -100.41699 | 35940 ft | 469 kts | 277° |
| 2026-05-05 12:48 | 49.94183 | -100.51742 | 35942 ft | 468 kts | 277° |
| 2026-05-05 12:49 | 49.94714 | -100.61775 | 35942 ft | 468 kts | 277° |
| 2026-05-05 12:49 | 49.95242 | -100.71894 | 35942 ft | 468 kts | 277° |
| 2026-05-05 12:50 | 49.95757 | -100.81954 | 35943 ft | 468 kts | 277° |
| 2026-05-05 12:50 | 49.96262 | -100.92007 | 35946 ft | 469 kts | 277° |
| 2026-05-05 12:51 | 49.96762 | -101.02127 | 35952 ft | 469 kts | 277° |
| 2026-05-05 12:51 | 49.97253 | -101.12230 | 35952 ft | 469 kts | 277° |
| 2026-05-05 12:52 | 49.97733 | -101.22296 | 35954 ft | 469 kts | 277° |
| 2026-05-05 12:52 | 49.98208 | -101.32435 | 35956 ft | 469 kts | 277° |
| 2026-05-05 12:53 | 49.98669 | -101.42493 | 35953 ft | 468 kts | 277° |
| 2026-05-05 12:53 | 49.99123 | -101.52562 | 35952 ft | 468 kts | 277° |
| 2026-05-05 12:54 | 49.99786 | -101.67640 | 35958 ft | 470 kts | 276° |
| 2026-05-05 12:55 | 50.00223 | -101.77819 | 35961 ft | 469 kts | 276° |
| 2026-05-05 12:55 | 50.00644 | -101.87850 | 35961 ft | 469 kts | 276° |
| 2026-05-05 12:56 | 50.01059 | -101.97962 | 35962 ft | 468 kts | 276° |
| 2026-05-05 12:56 | 50.01466 | -102.08076 | 35963 ft | 468 kts | 276° |
| 2026-05-05 12:57 | 50.01864 | -102.18153 | 35962 ft | 469 kts | 276° |
| 2026-05-05 12:57 | 50.02254 | -102.28294 | 35962 ft | 469 kts | 276° |
| 2026-05-05 12:58 | 50.02633 | -102.38377 | 35962 ft | 469 kts | 276° |
| 2026-05-05 12:58 | 50.03005 | -102.48488 | 35963 ft | 469 kts | 276° |
| 2026-05-05 12:59 | 50.03365 | -102.58545 | 35963 ft | 469 kts | 277° |
| 2026-05-05 12:59 | 50.03719 | -102.68667 | 35967 ft | 468 kts | 276° |
| 2026-05-05 13:00 | 50.04233 | -102.83811 | 35968 ft | 468 kts | 276° |
| 2026-05-05 13:01 | 50.04888 | -103.04019 | 35981 ft | 469 kts | 276° |
| 2026-05-05 13:01 | 50.05203 | -103.14174 | 35983 ft | 469 kts | 276° |
| 2026-05-05 13:02 | 50.05508 | -103.24284 | 35987 ft | 469 kts | 276° |
| 2026-05-05 13:02 | 50.05805 | -103.34395 | 35990 ft | 469 kts | 276° |
| 2026-05-05 13:03 | 50.06091 | -103.44460 | 35992 ft | 468 kts | 276° |
| 2026-05-05 13:03 | 50.06371 | -103.54596 | 35992 ft | 469 kts | 276° |
| 2026-05-05 13:04 | 50.06641 | -103.64707 | 35997 ft | 469 kts | 276° |
| 2026-05-05 13:04 | 50.06904 | -103.74884 | 36005 ft | 469 kts | 276° |
| 2026-05-05 13:05 | 50.07156 | -103.84972 | 36012 ft | 470 kts | 275° |
| 2026-05-05 13:05 | 50.07401 | -103.95145 | 36023 ft | 469 kts | 276° |
| 2026-05-05 13:06 | 50.07636 | -104.05287 | 36037 ft | 470 kts | 276° |
| 2026-05-05 13:06 | 50.07863 | -104.15411 | 36041 ft | 469 kts | 276° |
| 2026-05-05 13:07 | 50.08080 | -104.25551 | 36044 ft | 469 kts | 276° |
| 2026-05-05 13:07 | 50.08289 | -104.35694 | 36045 ft | 469 kts | 276° |
| 2026-05-05 13:08 | 50.08490 | -104.45875 | 36045 ft | 470 kts | 276° |
| 2026-05-05 13:08 | 50.08681 | -104.56001 | 36048 ft | 469 kts | 276° |
| 2026-05-05 13:09 | 50.08863 | -104.66162 | 36054 ft | 469 kts | 275° |
| 2026-05-05 13:09 | 50.09037 | -104.76322 | 36058 ft | 470 kts | 275° |
| 2026-05-05 13:10 | 50.09202 | -104.86488 | 36056 ft | 470 kts | 275° |
| 2026-05-05 13:10 | 50.09359 | -104.96716 | 36059 ft | 470 kts | 275° |
| 2026-05-05 13:11 | 50.09507 | -105.06888 | 36054 ft | 470 kts | 275° |
| 2026-05-05 13:11 | 50.09645 | -105.17074 | 36052 ft | 470 kts | 275° |
| 2026-05-05 13:12 | 50.09774 | -105.27217 | 36046 ft | 470 kts | 276° |
| 2026-05-05 13:12 | 50.09894 | -105.37357 | 36048 ft | 470 kts | 275° |
| 2026-05-05 13:13 | 50.10006 | -105.47506 | 36045 ft | 470 kts | 276° |
| 2026-05-05 13:13 | 50.10108 | -105.57625 | 36054 ft | 470 kts | 276° |
| 2026-05-05 13:14 | 50.10202 | -105.67788 | 36062 ft | 470 kts | 275° |
| 2026-05-05 13:14 | 50.10287 | -105.77992 | 36064 ft | 471 kts | 275° |
| 2026-05-05 13:15 | 50.10363 | -105.88145 | 36069 ft | 471 kts | 275° |
| 2026-05-05 13:15 | 50.10431 | -105.98322 | 36071 ft | 472 kts | 275° |
| 2026-05-05 13:16 | 50.10490 | -106.08541 | 36077 ft | 472 kts | 275° |
| 2026-05-05 13:16 | 50.10539 | -106.18733 | 36083 ft | 470 kts | 275° |
| 2026-05-05 13:17 | 50.10579 | -106.28871 | 36089 ft | 471 kts | 275° |
| 2026-05-05 13:17 | 50.10611 | -106.39095 | 36095 ft | 471 kts | 275° |
| 2026-05-05 13:18 | 50.10634 | -106.49233 | 36097 ft | 471 kts | 275° |
| 2026-05-05 13:18 | 50.10648 | -106.59405 | 36100 ft | 471 kts | 275° |
| 2026-05-05 13:19 | 50.10653 | -106.69634 | 36100 ft | 472 kts | 275° |
| 2026-05-05 13:19 | 50.10649 | -106.79822 | 36100 ft | 471 kts | 275° |
| 2026-05-05 13:20 | 50.10636 | -106.89961 | 36100 ft | 472 kts | 275° |
| 2026-05-05 13:20 | 50.10615 | -107.00162 | 36095 ft | 472 kts | 275° |
| 2026-05-05 13:21 | 50.10584 | -107.10352 | 36096 ft | 473 kts | 275° |
| 2026-05-05 13:21 | 50.10544 | -107.20580 | 36096 ft | 472 kts | 275° |
| 2026-05-05 13:22 | 50.10496 | -107.30745 | 36098 ft | 472 kts | 275° |
| 2026-05-05 13:22 | 50.10439 | -107.40951 | 36092 ft | 472 kts | 275° |
| 2026-05-05 13:23 | 50.10372 | -107.51093 | 36090 ft | 472 kts | 275° |
| 2026-05-05 13:23 | 50.10297 | -107.61314 | 36089 ft | 472 kts | 275° |
| 2026-05-05 13:24 | 50.10212 | -107.71614 | 36090 ft | 473 kts | 275° |
| 2026-05-05 13:24 | 50.10119 | -107.81834 | 36088 ft | 472 kts | 275° |
| 2026-05-05 13:25 | 50.10017 | -107.92002 | 36093 ft | 472 kts | 275° |
| 2026-05-05 13:25 | 50.09906 | -108.02216 | 36093 ft | 472 kts | 275° |
| 2026-05-05 13:26 | 50.09786 | -108.12415 | 36097 ft | 472 kts | 275° |
| 2026-05-05 13:26 | 50.09657 | -108.22572 | 36106 ft | 472 kts | 275° |
| 2026-05-05 13:27 | 50.09519 | -108.32797 | 36110 ft | 472 kts | 275° |
| 2026-05-05 13:27 | 50.09372 | -108.43024 | 36110 ft | 473 kts | 275° |
| 2026-05-05 13:28 | 50.09215 | -108.53267 | 36108 ft | 473 kts | 275° |
| 2026-05-05 13:28 | 50.09050 | -108.63440 | 36119 ft | 472 kts | 276° |
| 2026-05-05 13:29 | 50.08877 | -108.73661 | 36132 ft | 474 kts | 275° |
| 2026-05-05 13:29 | 50.08693 | -108.83876 | 36138 ft | 472 kts | 275° |
| 2026-05-05 13:30 | 50.08502 | -108.94036 | 36130 ft | 472 kts | 275° |
| 2026-05-05 13:30 | 50.08302 | -109.04208 | 36137 ft | 471 kts | 275° |
| 2026-05-05 13:31 | 50.08093 | -109.14404 | 36134 ft | 472 kts | 275° |
| 2026-05-05 13:31 | 50.07876 | -109.24550 | 36131 ft | 473 kts | 276° |
| 2026-05-05 13:32 | 50.07648 | -109.34775 | 36136 ft | 472 kts | 276° |
| 2026-05-05 13:32 | 50.07410 | -109.44994 | 36141 ft | 470 kts | 276° |
| 2026-05-05 13:33 | 50.07166 | -109.55163 | 36141 ft | 472 kts | 276° |
| 2026-05-05 13:33 | 50.06913 | -109.65325 | 36142 ft | 471 kts | 275° |
| 2026-05-05 13:34 | 50.06650 | -109.75500 | 36142 ft | 471 kts | 276° |
| 2026-05-05 13:34 | 50.06380 | -109.85618 | 36141 ft | 472 kts | 276° |
| 2026-05-05 13:35 | 50.06100 | -109.95815 | 36144 ft | 473 kts | 276° |
| 2026-05-05 13:35 | 50.05940 | -110.05933 | 36154 ft | 468 kts | 278° |
| 2026-05-05 13:36 | 50.05854 | -110.16059 | 36148 ft | 468 kts | 278° |
| 2026-05-05 13:36 | 50.05762 | -110.26163 | 36155 ft | 469 kts | 278° |
| 2026-05-05 13:37 | 50.05660 | -110.36277 | 36154 ft | 468 kts | 278° |
| 2026-05-05 13:37 | 50.05550 | -110.46289 | 36153 ft | 466 kts | 279° |
| 2026-05-05 13:38 | 50.05432 | -110.56426 | 36159 ft | 466 kts | 279° |
| 2026-05-05 13:38 | 50.05307 | -110.66430 | 36163 ft | 467 kts | 278° |
| 2026-05-05 13:39 | 50.05171 | -110.76529 | 36168 ft | 468 kts | 279° |
| 2026-05-05 13:39 | 50.05025 | -110.86576 | 36159 ft | 464 kts | 279° |
| 2026-05-05 13:40 | 50.04874 | -110.96502 | 36158 ft | 461 kts | 279° |
| 2026-05-05 13:40 | 50.04716 | -111.06580 | 36160 ft | 468 kts | 279° |
| 2026-05-05 13:41 | 50.04631 | -111.11616 | 35906 ft | 465 kts | 279° |
| 2026-05-05 13:41 | 50.04544 | -111.16592 | 36120 ft | 464 kts | 279° |
| 2026-05-05 13:41 | 50.04460 | -111.26743 | 36156 ft | 468 kts | 281° |
| 2026-05-05 13:42 | 50.04448 | -111.36721 | 36160 ft | 461 kts | 281° |
| 2026-05-05 13:42 | 50.04426 | -111.46700 | 36166 ft | 462 kts | 281° |
| 2026-05-05 13:43 | 50.04391 | -111.56638 | 36167 ft | 462 kts | 281° |
| 2026-05-05 13:43 | 50.04345 | -111.66630 | 36172 ft | 461 kts | 281° |
| 2026-05-05 13:44 | 50.04290 | -111.76623 | 36181 ft | 462 kts | 281° |
| 2026-05-05 13:44 | 50.04226 | -111.86556 | 36171 ft | 463 kts | 281° |
| 2026-05-05 13:45 | 50.04151 | -111.96569 | 36185 ft | 459 kts | 282° |
| 2026-05-05 13:45 | 50.04071 | -112.06488 | 36169 ft | 460 kts | 282° |
| 2026-05-05 13:46 | 50.03982 | -112.16377 | 36164 ft | 463 kts | 282° |
| 2026-05-05 13:46 | 50.03883 | -112.26355 | 36165 ft | 461 kts | 282° |
| 2026-05-05 13:47 | 50.03773 | -112.36279 | 36171 ft | 459 kts | 282° |
| 2026-05-05 13:47 | 50.03659 | -112.46122 | 36172 ft | 458 kts | 282° |
| 2026-05-05 13:48 | 50.03538 | -112.56028 | 36165 ft | 462 kts | 282° |
| 2026-05-05 13:48 | 50.03402 | -112.66032 | 36165 ft | 460 kts | 281° |
| 2026-05-05 13:49 | 50.03263 | -112.75978 | 36165 ft | 462 kts | 281° |
| 2026-05-05 13:49 | 50.03112 | -112.85896 | 36164 ft | 459 kts | 281° |
| 2026-05-05 13:50 | 50.02956 | -112.95776 | 36156 ft | 463 kts | 281° |
| 2026-05-05 13:50 | 50.02786 | -113.05801 | 36152 ft | 459 kts | 281° |
| 2026-05-05 13:51 | 50.02611 | -113.15662 | 36150 ft | 456 kts | 281° |
| 2026-05-05 13:51 | 50.02431 | -113.25547 | 36151 ft | 459 kts | 281° |
| 2026-05-05 13:52 | 50.02240 | -113.35458 | 36155 ft | 460 kts | 281° |
| 2026-05-05 13:52 | 50.02038 | -113.45407 | 36158 ft | 458 kts | 281° |
| 2026-05-05 13:53 | 50.01832 | -113.55281 | 36160 ft | 462 kts | 281° |
| 2026-05-05 13:53 | 50.01613 | -113.65218 | 36159 ft | 458 kts | 280° |
| 2026-05-05 13:54 | 50.01390 | -113.75132 | 36165 ft | 465 kts | 280° |
| 2026-05-05 13:54 | 50.01152 | -113.85063 | 36162 ft | 458 kts | 280° |
| 2026-05-05 13:55 | 50.00911 | -113.94990 | 36158 ft | 461 kts | 280° |
| 2026-05-05 13:55 | 50.00659 | -114.04903 | 36154 ft | 458 kts | 280° |
| 2026-05-05 13:56 | 50.00403 | -114.14757 | 36146 ft | 461 kts | 280° |
| 2026-05-05 13:56 | 50.00133 | -114.24682 | 36133 ft | 459 kts | 280° |
| 2026-05-05 13:57 | 49.99859 | -114.34525 | 36123 ft | 458 kts | 280° |
| 2026-05-05 13:57 | 49.99578 | -114.44279 | 36118 ft | 457 kts | 280° |
| 2026-05-05 13:58 | 49.99285 | -114.54234 | 36105 ft | 458 kts | 280° |
| 2026-05-05 13:58 | 49.98986 | -114.64064 | 36079 ft | 459 kts | 280° |
| 2026-05-05 13:59 | 49.98519 | -114.78954 | 36067 ft | 461 kts | 279° |
| 2026-05-05 14:00 | 49.98032 | -114.93759 | 36098 ft | 458 kts | 279° |
| 2026-05-05 14:00 | 49.97699 | -115.03580 | 36134 ft | 458 kts | 279° |
| 2026-05-05 14:01 | 49.97357 | -115.13499 | 36084 ft | 458 kts | 278° |
| 2026-05-05 14:01 | 49.97007 | -115.23307 | 36064 ft | 458 kts | 278° |
| 2026-05-05 14:02 | 49.96649 | -115.33165 | 36066 ft | 459 kts | 278° |
| 2026-05-05 14:02 | 49.96280 | -115.43047 | 36067 ft | 457 kts | 278° |
| 2026-05-05 14:03 | 49.95906 | -115.52890 | 36072 ft | 460 kts | 278° |
| 2026-05-05 14:03 | 49.95520 | -115.62760 | 36113 ft | 456 kts | 278° |
| 2026-05-05 14:04 | 49.95132 | -115.72594 | 36134 ft | 463 kts | 277° |
| 2026-05-05 14:04 | 49.94728 | -115.82480 | 36137 ft | 459 kts | 277° |
| 2026-05-05 14:05 | 49.94319 | -115.92342 | 36097 ft | 460 kts | 277° |
| 2026-05-05 14:05 | 49.93899 | -116.02264 | 36045 ft | 461 kts | 277° |
| 2026-05-05 14:06 | 49.93471 | -116.12150 | 36035 ft | 460 kts | 277° |
| 2026-05-05 14:06 | 49.93036 | -116.22049 | 36031 ft | 462 kts | 277° |
| 2026-05-05 14:07 | 49.92590 | -116.31960 | 36033 ft | 462 kts | 277° |
| 2026-05-05 14:07 | 49.92133 | -116.41914 | 36025 ft | 460 kts | 277° |
| 2026-05-05 14:08 | 49.91671 | -116.51851 | 36044 ft | 464 kts | 277° |
| 2026-05-05 14:08 | 49.91199 | -116.61740 | 36034 ft | 462 kts | 276° |
| 2026-05-05 14:09 | 49.90961 | -116.66673 | 36382 ft | 460 kts | 276° |
| 2026-05-05 14:09 | 49.90728 | -116.71501 | 36216 ft | 464 kts | 276° |
| 2026-05-05 14:09 | 49.90481 | -116.76543 | 36033 ft | 463 kts | 276° |
| 2026-05-05 14:09 | 49.90232 | -116.81513 | 36029 ft | 458 kts | 276° |
| 2026-05-05 14:10 | 49.89741 | -116.91384 | 36009 ft | 464 kts | 276° |
| 2026-05-05 14:10 | 49.89234 | -117.01303 | 36018 ft | 463 kts | 275° |
| 2026-05-05 14:11 | 49.88720 | -117.11211 | 36021 ft | 462 kts | 275° |
| 2026-05-05 14:11 | 49.88198 | -117.21110 | 36020 ft | 460 kts | 275° |
| 2026-05-05 14:12 | 49.87667 | -117.31032 | 36017 ft | 461 kts | 275° |
| 2026-05-05 14:12 | 49.87128 | -117.40941 | 36015 ft | 463 kts | 275° |
| 2026-05-05 14:13 | 49.86578 | -117.50894 | 36007 ft | 464 kts | 275° |
| 2026-05-05 14:13 | 49.86021 | -117.60789 | 36001 ft | 460 kts | 275° |
| 2026-05-05 14:14 | 49.85460 | -117.70646 | 36012 ft | 464 kts | 274° |
| 2026-05-05 14:14 | 49.84884 | -117.80581 | 36013 ft | 463 kts | 274° |
| 2026-05-05 14:15 | 49.84303 | -117.90479 | 36014 ft | 463 kts | 274° |
| 2026-05-05 14:15 | 49.83716 | -118.00326 | 36016 ft | 465 kts | 274° |
| 2026-05-05 14:16 | 49.83116 | -118.10239 | 36006 ft | 462 kts | 274° |
| 2026-05-05 14:16 | 49.82503 | -118.20222 | 36008 ft | 463 kts | 274° |
| 2026-05-05 14:17 | 49.81883 | -118.30201 | 35992 ft | 463 kts | 274° |
| 2026-05-05 14:17 | 49.81261 | -118.40061 | 36014 ft | 465 kts | 274° |
| 2026-05-05 14:18 | 49.80624 | -118.50011 | 36010 ft | 463 kts | 274° |
| 2026-05-05 14:18 | 49.79977 | -118.59985 | 36013 ft | 464 kts | 273° |
| 2026-05-05 14:19 | 49.79329 | -118.69852 | 36009 ft | 466 kts | 272° |
| 2026-05-05 14:19 | 49.78667 | -118.79796 | 36004 ft | 465 kts | 272° |
| 2026-05-05 14:20 | 49.77995 | -118.89745 | 36009 ft | 464 kts | 272° |
| 2026-05-05 14:20 | 49.77318 | -118.99656 | 36016 ft | 464 kts | 272° |
| 2026-05-05 14:21 | 49.76631 | -119.09589 | 36027 ft | 466 kts | 272° |
| 2026-05-05 14:21 | 49.75934 | -119.19537 | 36025 ft | 467 kts | 272° |
| 2026-05-05 14:22 | 49.75229 | -119.29469 | 36026 ft | 465 kts | 272° |
| 2026-05-05 14:22 | 49.74517 | -119.39386 | 36026 ft | 466 kts | 271° |
| 2026-05-05 14:23 | 49.73793 | -119.49330 | 36021 ft | 465 kts | 272° |
| 2026-05-05 14:23 | 49.73067 | -119.59206 | 36019 ft | 465 kts | 271° |
| 2026-05-05 14:24 | 49.72328 | -119.69126 | 36006 ft | 466 kts | 270° |
| 2026-05-05 14:24 | 49.71581 | -119.79063 | 35992 ft | 468 kts | 270° |
| 2026-05-05 14:25 | 49.70818 | -119.89059 | 36015 ft | 468 kts | 270° |
| 2026-05-05 14:25 | 49.70052 | -119.98990 | 36045 ft | 467 kts | 270° |
| 2026-05-05 14:26 | 49.69279 | -120.08903 | 36046 ft | 466 kts | 270° |
| 2026-05-05 14:26 | 49.68497 | -120.18825 | 36049 ft | 467 kts | 270° |
| 2026-05-05 14:27 | 49.67707 | -120.28736 | 36051 ft | 467 kts | 270° |
| 2026-05-05 14:27 | 49.66907 | -120.38654 | 36038 ft | 467 kts | 270° |
| 2026-05-05 14:28 | 49.66098 | -120.48576 | 36023 ft | 465 kts | 270° |
| 2026-05-05 14:28 | 49.65281 | -120.58502 | 36011 ft | 466 kts | 269° |
| 2026-05-05 14:29 | 49.64455 | -120.68430 | 36017 ft | 467 kts | 269° |
| 2026-05-05 14:29 | 49.63619 | -120.78352 | 36026 ft | 466 kts | 269° |
| 2026-05-05 14:30 | 49.63203 | -120.83237 | 35765 ft | 459 kts | 269° |
| 2026-05-05 14:30 | 49.62791 | -120.88070 | 34879 ft | 462 kts | 268° |
| 2026-05-05 14:30 | 49.62369 | -120.93013 | 34032 ft | 464 kts | 268° |
| 2026-05-05 14:30 | 49.61947 | -120.97918 | 33273 ft | 464 kts | 268° |
| 2026-05-05 14:31 | 49.61519 | -121.02866 | 32463 ft | 466 kts | 268° |
| 2026-05-05 14:31 | 49.61093 | -121.07767 | 31616 ft | 469 kts | 268° |
| 2026-05-05 14:31 | 49.60662 | -121.12714 | 30770 ft | 471 kts | 268° |
| 2026-05-05 14:31 | 49.60220 | -121.17724 | 30226 ft | 465 kts | 268° |
| 2026-05-05 14:32 | 49.59792 | -121.22555 | 29765 ft | 460 kts | 268° |
| 2026-05-05 14:32 | 49.59353 | -121.27512 | 29237 ft | 470 kts | 268° |
| 2026-05-05 14:32 | 49.58913 | -121.32475 | 28673 ft | 476 kts | 268° |
| 2026-05-05 14:32 | 49.58457 | -121.37556 | 28087 ft | 472 kts | 268° |
| 2026-05-05 14:33 | 49.58013 | -121.42466 | 27531 ft | 467 kts | 268° |
| 2026-05-05 14:33 | 49.57563 | -121.47417 | 26950 ft | 463 kts | 268° |
| 2026-05-05 14:33 | 49.57123 | -121.52245 | 26377 ft | 458 kts | 268° |
| 2026-05-05 14:33 | 49.56682 | -121.57062 | 25799 ft | 454 kts | 268° |
| 2026-05-05 14:34 | 49.56241 | -121.61865 | 25208 ft | 449 kts | 268° |
| 2026-05-05 14:34 | 49.55808 | -121.66552 | 24630 ft | 445 kts | 267° |
| 2026-05-05 14:34 | 49.55376 | -121.71214 | 24047 ft | 441 kts | 267° |
| 2026-05-05 14:34 | 49.54943 | -121.75867 | 23461 ft | 436 kts | 267° |
| 2026-05-05 14:35 | 49.54512 | -121.80464 | 22882 ft | 432 kts | 267° |
| 2026-05-05 14:35 | 49.54087 | -121.84990 | 22312 ft | 428 kts | 267° |
| 2026-05-05 14:35 | 49.53663 | -121.89497 | 21734 ft | 424 kts | 267° |
| 2026-05-05 14:35 | 49.53237 | -121.93988 | 21152 ft | 420 kts | 267° |
| 2026-05-05 14:36 | 49.52819 | -121.98357 | 20588 ft | 417 kts | 266° |
| 2026-05-05 14:36 | 49.52113 | -122.02695 | 20010 ft | 420 kts | 256° |
| 2026-05-05 14:36 | 49.50903 | -122.06829 | 19449 ft | 423 kts | 246° |
| 2026-05-05 14:36 | 49.49466 | -122.10747 | 18893 ft | 421 kts | 245° |
| 2026-05-05 14:37 | 49.47995 | -122.14610 | 18330 ft | 425 kts | 244° |
| 2026-05-05 14:37 | 49.46469 | -122.18548 | 17713 ft | 424 kts | 244° |
| 2026-05-05 14:37 | 49.44977 | -122.22407 | 17165 ft | 421 kts | 244° |
| 2026-05-05 14:37 | 49.43479 | -122.26256 | 16589 ft | 419 kts | 243° |
| 2026-05-05 14:38 | 49.41987 | -122.30065 | 15996 ft | 417 kts | 243° |
| 2026-05-05 14:38 | 49.40500 | -122.33839 | 15418 ft | 414 kts | 243° |
| 2026-05-05 14:38 | 49.38992 | -122.37553 | 14827 ft | 412 kts | 240° |
| 2026-05-05 14:38 | 49.37429 | -122.41202 | 14241 ft | 410 kts | 240° |
| 2026-05-05 14:39 | 49.35855 | -122.44858 | 13594 ft | 408 kts | 240° |
| 2026-05-05 14:39 | 49.34319 | -122.48421 | 13047 ft | 404 kts | 239° |
| 2026-05-05 14:39 | 49.32781 | -122.51990 | 12489 ft | 401 kts | 239° |
| 2026-05-05 14:39 | 49.31244 | -122.55554 | 11848 ft | 398 kts | 239° |
| 2026-05-05 14:40 | 49.29741 | -122.59032 | 11288 ft | 390 kts | 239° |
| 2026-05-05 14:40 | 49.28265 | -122.62445 | 10819 ft | 379 kts | 239° |
| 2026-05-05 14:40 | 49.26847 | -122.65720 | 10763 ft | 356 kts | 238° |
| 2026-05-05 14:40 | 49.25632 | -122.68868 | 10617 ft | 335 kts | 250° |
| 2026-05-05 14:41 | 49.25060 | -122.72213 | 10487 ft | 315 kts | 264° |
| 2026-05-05 14:41 | 49.24958 | -122.75441 | 10364 ft | 301 kts | 274° |
| 2026-05-05 14:41 | 49.25120 | -122.78577 | 10234 ft | 290 kts | 278° |
| 2026-05-05 14:41 | 49.25397 | -122.81567 | 10099 ft | 280 kts | 281° |
| 2026-05-05 14:42 | 49.25714 | -122.84458 | 9884 ft | 276 kts | 281° |
| 2026-05-05 14:42 | 49.26048 | -122.87357 | 9486 ft | 278 kts | 281° |
| 2026-05-05 14:42 | 49.26385 | -122.90260 | 9144 ft | 278 kts | 281° |
| 2026-05-05 14:42 | 49.26721 | -122.93149 | 8982 ft | 270 kts | 281° |
| 2026-05-05 14:43 | 49.27043 | -122.95931 | 8739 ft | 266 kts | 281° |
| 2026-05-05 14:43 | 49.27367 | -122.98725 | 8432 ft | 265 kts | 281° |
| 2026-05-05 14:43 | 49.27688 | -123.01505 | 8153 ft | 263 kts | 281° |
| 2026-05-05 14:43 | 49.28002 | -123.04227 | 7896 ft | 261 kts | 282° |
| 2026-05-05 14:44 | 49.28328 | -123.06976 | 7610 ft | 261 kts | 282° |
| 2026-05-05 14:44 | 49.28655 | -123.09722 | 7252 ft | 262 kts | 282° |
| 2026-05-05 14:44 | 49.28977 | -123.12445 | 6946 ft | 262 kts | 282° |
| 2026-05-05 14:44 | 49.29298 | -123.15167 | 6627 ft | 261 kts | 282° |
| 2026-05-05 14:45 | 49.29621 | -123.17911 | 6276 ft | 257 kts | 282° |
| 2026-05-05 14:45 | 49.29930 | -123.20555 | 5995 ft | 252 kts | 282° |
| 2026-05-05 14:45 | 49.30238 | -123.23181 | 5748 ft | 248 kts | 282° |
| 2026-05-05 14:45 | 49.30542 | -123.25780 | 5503 ft | 242 kts | 282° |
| 2026-05-05 14:46 | 49.30815 | -123.28247 | 5464 ft | 237 kts | 281° |
| 2026-05-05 14:46 | 49.31085 | -123.30759 | 5450 ft | 238 kts | 281° |
| 2026-05-05 14:46 | 49.31354 | -123.33249 | 5457 ft | 238 kts | 281° |
| 2026-05-05 14:46 | 49.31626 | -123.35767 | 5465 ft | 238 kts | 281° |
| 2026-05-05 14:47 | 49.31893 | -123.38245 | 5359 ft | 235 kts | 281° |
| 2026-05-05 14:47 | 49.32163 | -123.40744 | 5007 ft | 238 kts | 281° |
| 2026-05-05 14:47 | 49.32433 | -123.43259 | 4733 ft | 237 kts | 281° |
| 2026-05-05 14:47 | 49.32696 | -123.45708 | 4619 ft | 229 kts | 281° |
| 2026-05-05 14:48 | 49.32939 | -123.48086 | 4424 ft | 226 kts | 279° |
| 2026-05-05 14:48 | 49.33168 | -123.50494 | 4163 ft | 226 kts | 280° |
| 2026-05-05 14:48 | 49.33395 | -123.52856 | 3910 ft | 226 kts | 280° |
| 2026-05-05 14:48 | 49.33624 | -123.55226 | 3644 ft | 225 kts | 280° |
| 2026-05-05 14:49 | 49.33843 | -123.57587 | 3388 ft | 225 kts | 275° |
| 2026-05-05 14:49 | 49.33573 | -123.59937 | 3073 ft | 227 kts | 242° |
| 2026-05-05 14:49 | 49.32498 | -123.61642 | 2937 ft | 222 kts | 206° |
| 2026-05-05 14:49 | 49.30997 | -123.62223 | 2949 ft | 224 kts | 186° |
| 2026-05-05 14:50 | 49.29445 | -123.62462 | 2940 ft | 224 kts | 185° |
| 2026-05-05 14:50 | 49.27891 | -123.62663 | 2935 ft | 224 kts | 179° |
| 2026-05-05 14:50 | 49.26422 | -123.62028 | 2925 ft | 221 kts | 144° |
| 2026-05-05 14:50 | 49.25376 | -123.60339 | 2944 ft | 220 kts | 125° |
| 2026-05-05 14:51 | 49.24622 | -123.58334 | 2945 ft | 215 kts | 104° |
| 2026-05-05 14:51 | 49.24460 | -123.56062 | 2946 ft | 216 kts | 93° |
| 2026-05-05 14:51 | 49.24321 | -123.53763 | 2946 ft | 215 kts | 96° |
| 2026-05-05 14:51 | 49.24108 | -123.51508 | 2958 ft | 209 kts | 98° |
| 2026-05-05 14:52 | 49.23866 | -123.49344 | 2951 ft | 204 kts | 99° |
| 2026-05-05 14:52 | 49.23615 | -123.47224 | 2959 ft | 204 kts | 99° |
| 2026-05-05 14:52 | 49.23365 | -123.45092 | 2955 ft | 199 kts | 99° |
| 2026-05-05 14:52 | 49.23134 | -123.43072 | 2951 ft | 189 kts | 99° |
| 2026-05-05 14:53 | 49.22906 | -123.41060 | 2777 ft | 189 kts | 99° |
| 2026-05-05 14:53 | 49.22687 | -123.39114 | 2534 ft | 186 kts | 99° |
| 2026-05-05 14:53 | 49.22467 | -123.37170 | 2292 ft | 182 kts | 99° |
| 2026-05-05 14:53 | 49.22254 | -123.35290 | 2052 ft | 179 kts | 99° |
| 2026-05-05 14:54 | 49.22044 | -123.33450 | 1803 ft | 168 kts | 99° |
| 2026-05-05 14:54 | 49.21849 | -123.31744 | 1590 ft | 159 kts | 99° |
| 2026-05-05 14:54 | 49.21667 | -123.30138 | 1380 ft | 147 kts | 99° |
| 2026-05-05 14:54 | 49.21493 | -123.28619 | 1192 ft | 143 kts | 99° |
| 2026-05-05 14:55 | 49.21324 | -123.27123 | 998 ft | 143 kts | 99° |
| 2026-05-05 14:55 | 49.21156 | -123.25655 | 803 ft | 140 kts | 99° |
| 2026-05-05 14:55 | 49.20995 | -123.24198 | 582 ft | 140 kts | 99° |
| 2026-05-05 14:55 | 49.20834 | -123.22742 | 350 ft | 137 kts | 100° |
| 2026-05-05 14:56 | 49.20665 | -123.21301 | 203 ft | 140 kts | 100° |
| 2026-05-05 14:56 | 49.20488 | -123.19822 | 43 ft | 140 kts | 101° |
| 2026-05-05 14:56 | 49.20338 | -123.18518 | 25 ft | 105 kts | 100° |
| 2026-05-05 14:56 | 49.20246 | -123.17687 | 25 ft | 52 kts | 100° |
| 2026-05-05 14:57 | 49.20201 | -123.17293 | 24 ft | 33 kts | 100° |
| 2026-05-05 14:57 | 49.20142 | -123.16978 | 22 ft | 29 kts | 120° |
| 2026-05-05 14:57 | 49.20050 | -123.16794 | 22 ft | 12 kts | 130° |
| 2026-05-05 14:57 | 49.19995 | -123.16693 | 22 ft | 11 kts | 129° |
| 2026-05-05 14:58 | 49.19948 | -123.16616 | 22 ft | 5 kts | 160° |
| 2026-05-05 14:58 | 49.19922 | -123.16645 | 22 ft | 7 kts | 250° |
| 2026-05-05 14:58 | 49.19923 | -123.16743 | 22 ft | 11 kts | 279° |
| 2026-05-05 14:58 | 49.19936 | -123.16876 | 22 ft | 14 kts | 279° |
| 2026-05-05 14:59 | 49.19956 | -123.17050 | 22 ft | 18 kts | 281° |
| 2026-05-05 14:59 | 49.19982 | -123.17270 | 22 ft | 22 kts | 279° |
| 2026-05-05 14:59 | 49.20010 | -123.17522 | 22 ft | 25 kts | 279° |
| 2026-05-05 14:59 | 49.20039 | -123.17775 | 22 ft | 22 kts | 280° |
| 2026-05-05 15:00 | 49.20066 | -123.18001 | 25 ft | 21 kts | 280° |
| 2026-05-05 15:00 | 49.20083 | -123.18151 | 24 ft | 22 kts | 280° |
| 2026-05-05 15:00 | 49.20113 | -123.18418 | 24 ft | 8 kts | 280° |
| 2026-05-05 15:00 | 49.20090 | -123.18494 | 23 ft | 11 kts | 210° |
| 2026-05-05 15:01 | 49.19991 | -123.18527 | 22 ft | 17 kts | 189° |
| 2026-05-05 15:01 | 49.19873 | -123.18557 | 22 ft | 16 kts | 189° |
| 2026-05-05 15:01 | 49.19771 | -123.18587 | 22 ft | 10 kts | 191° |
| 2026-05-05 15:01 | 49.19717 | -123.18545 | 22 ft | 9 kts | 112° |
| 2026-05-05 15:02 | 49.19702 | -123.18447 | 23 ft | 7 kts | 101° |
| 2026-05-05 15:02 | 49.19680 | -123.18396 | 24 ft | 5 kts | 155° |
| 2026-05-05 15:02 | 49.19643 | -123.18391 | 24 ft | 4 kts | 179° |
| 2026-05-05 15:02 | 49.19628 | -123.18391 | 24 ft | 1 kts | 183° |
| 2026-05-05 15:03 | 49.19621 | -123.18392 | 24 ft | 0 kts | 184° |